createdAt,value
2023-05-04T00:02:18.819Z,15.38
2023-05-04T00:06:35.134Z,15.37
2023-05-04T00:10:51.566Z,15.45
2023-05-04T00:15:08.402Z,15.27
2023-05-04T00:19:24.770Z,15.21
2023-05-04T00:23:40.950Z,15.19
2023-05-04T00:27:57.357Z,15.29
2023-05-04T00:32:13.614Z,15.28
2023-05-04T00:36:29.874Z,15.34
2023-05-04T00:40:46.456Z,15.14
2023-05-04T00:45:02.792Z,15.16
2023-05-04T00:49:19.038Z,15.24
2023-05-04T00:53:36.426Z,15.10
2023-05-04T00:57:52.929Z,15.21
2023-05-04T01:02:09.525Z,15.14
2023-05-04T01:06:34.680Z,15.06
2023-05-04T01:10:56.852Z,15.05
2023-05-04T01:15:14.084Z,15.13
2023-05-04T01:19:30.434Z,15.13
2023-05-04T01:23:46.868Z,15.20
2023-05-04T01:28:13.917Z,15.11
2023-05-04T01:32:31.678Z,15.23
2023-05-04T01:36:48.394Z,15.18
2023-05-04T01:41:04.770Z,14.91
2023-05-04T01:45:21.772Z,15.13
2023-05-04T01:49:38.087Z,15.17
2023-05-04T01:53:54.420Z,15.13
2023-05-04T01:58:10.769Z,15.24
2023-05-04T02:02:27.133Z,15.11
2023-05-04T02:06:43.366Z,15.16
2023-05-04T02:10:59.637Z,15.16
2023-05-04T02:15:16.016Z,15.27
2023-05-04T02:19:32.228Z,15.24
2023-05-04T02:23:48.528Z,15.24
2023-05-04T02:28:04.813Z,15.19
2023-05-04T02:32:21.181Z,15.10
2023-05-04T02:36:37.438Z,15.19
2023-05-04T02:40:53.761Z,15.06
2023-05-04T02:45:10.444Z,15.11
2023-05-04T02:49:26.942Z,15.21
2023-05-04T02:53:43.243Z,15.17
2023-05-04T02:57:59.541Z,15.14
2023-05-04T03:02:15.791Z,15.03
2023-05-04T03:06:32.062Z,15.00
2023-05-04T03:10:48.308Z,15.01
2023-05-04T03:15:04.714Z,15.22
2023-05-04T03:19:22.313Z,15.07
2023-05-04T03:23:38.611Z,15.21
2023-05-04T03:27:54.889Z,15.07
2023-05-04T03:32:11.923Z,15.01
2023-05-04T03:36:28.384Z,15.12
2023-05-04T03:40:45.190Z,15.02
2023-05-04T03:45:03.841Z,14.96
2023-05-04T03:49:20.729Z,15.02
2023-05-04T03:53:37.102Z,14.84
2023-05-04T03:57:53.298Z,14.97
2023-05-04T04:02:09.637Z,14.88
2023-05-04T04:06:26.116Z,14.83
2023-05-04T04:10:42.568Z,14.85
2023-05-04T04:14:58.769Z,14.99
2023-05-04T04:19:15.082Z,14.88
2023-05-04T04:23:31.333Z,14.89
2023-05-04T04:27:47.590Z,15.12
2023-05-04T04:32:04.502Z,15.10
2023-05-04T04:36:21.029Z,15.13
2023-05-04T04:40:37.228Z,14.93
2023-05-04T04:44:53.733Z,15.05
2023-05-04T04:49:10.318Z,15.06
2023-05-04T04:53:26.774Z,15.13
2023-05-04T04:57:42.990Z,15.22
2023-05-04T05:01:59.531Z,15.30
2023-05-04T05:06:16.099Z,15.11
2023-05-04T05:10:32.493Z,15.08
2023-05-04T05:14:51.048Z,15.15
2023-05-04T05:19:07.953Z,15.45
2023-05-04T05:23:24.322Z,15.38
2023-05-04T05:27:40.570Z,15.27
2023-05-04T05:31:56.920Z,15.08
2023-05-04T05:36:14.721Z,15.09
2023-05-04T05:40:31.498Z,15.16
2023-05-04T05:44:47.964Z,15.02
2023-05-04T05:49:07.482Z,15.37
2023-05-04T05:53:24.024Z,15.37
2023-05-04T05:57:40.405Z,15.37
2023-05-04T06:01:56.639Z,15.53
2023-05-04T06:06:13.034Z,15.55
2023-05-04T06:10:29.503Z,15.69
2023-05-04T06:14:46.140Z,15.93
2023-05-04T06:19:02.307Z,16.18
2023-05-04T06:23:18.464Z,16.03
2023-05-04T06:27:34.838Z,16.13
2023-05-04T06:31:51.625Z,16.42
2023-05-04T06:36:08.228Z,16.49
2023-05-04T06:40:25.043Z,16.77
2023-05-04T06:44:41.677Z,16.87
2023-05-04T06:48:58.663Z,16.83
2023-05-04T06:53:15.358Z,17.12
2023-05-04T06:57:31.880Z,17.10
2023-05-04T07:01:48.500Z,17.30
2023-05-04T07:06:04.948Z,17.51
2023-05-04T07:10:21.142Z,17.74
2023-05-04T07:14:37.456Z,17.83
2023-05-04T07:18:53.750Z,17.52
2023-05-04T07:23:09.978Z,17.75
2023-05-04T07:27:26.226Z,17.90
2023-05-04T07:31:42.449Z,18.48
2023-05-04T07:35:59.661Z,18.38
2023-05-04T07:40:16.625Z,18.54
2023-05-04T07:44:33.318Z,18.35
2023-05-04T07:48:49.689Z,18.73
2023-05-04T07:53:05.899Z,18.63
2023-05-04T07:57:22.508Z,18.62
2023-05-04T08:01:38.795Z,19.20
2023-05-04T08:05:55.017Z,18.54
2023-05-04T08:10:11.472Z,18.91
2023-05-04T08:14:27.655Z,18.69
2023-05-04T08:18:43.991Z,18.74
2023-05-04T08:23:02.989Z,19.15
2023-05-04T08:27:19.339Z,18.96
2023-05-04T08:31:37.810Z,19.35
2023-05-04T08:35:54.086Z,18.72
2023-05-04T08:40:12.742Z,18.86
2023-05-04T08:44:29.481Z,19.17
2023-05-04T08:48:46.614Z,19.20
2023-05-04T08:53:05.959Z,17.94
2023-05-04T08:57:23.873Z,19.06
2023-05-04T09:01:40.522Z,19.11
2023-05-04T09:05:57.653Z,19.14
2023-05-04T09:10:13.910Z,19.03
2023-05-04T09:14:34.849Z,19.01
2023-05-04T09:18:51.529Z,18.95
2023-05-04T09:23:09.398Z,19.01
2023-05-04T09:27:26.052Z,19.16
2023-05-04T09:31:47.431Z,19.73
2023-05-04T09:36:18.380Z,20.14
2023-05-04T09:40:42.558Z,20.19
2023-05-04T09:45:08.390Z,20.91
2023-05-04T09:49:50.816Z,20.33
2023-05-04T09:54:07.429Z,20.76
2023-05-04T09:58:25.208Z,20.79
2023-05-04T10:02:42.621Z,21.30
2023-05-04T10:06:59.464Z,22.26
2023-05-04T10:11:18.865Z,22.52
2023-05-04T10:15:36.583Z,22.90
2023-05-04T10:20:07.929Z,23.18
2023-05-04T10:24:33.572Z,23.14
2023-05-04T10:29:19.710Z,22.75
2023-05-04T10:33:44.172Z,22.95
2023-05-04T10:38:00.992Z,23.07
2023-05-04T10:42:17.079Z,23.14
2023-05-04T10:46:33.350Z,23.70
2023-05-04T10:50:50.761Z,23.06
2023-05-04T10:55:09.273Z,23.33
2023-05-04T10:59:25.577Z,23.24
2023-05-04T11:03:42.495Z,23.40
2023-05-04T11:12:16.729Z,22.84
2023-05-04T11:16:32.968Z,22.90
2023-05-04T11:20:49.347Z,22.40
2023-05-04T11:25:06.862Z,22.30
2023-05-04T11:29:23.176Z,21.36
2023-05-04T11:33:39.404Z,21.11
2023-05-04T11:37:56.594Z,21.61
2023-05-04T11:42:12.815Z,20.68
2023-05-04T11:46:29.331Z,20.90
2023-05-04T11:50:46.061Z,20.70
2023-05-04T11:55:03.584Z,20.80
2023-05-04T11:59:19.914Z,21.07
2023-05-04T12:03:53.320Z,21.01
2023-05-04T12:08:12.634Z,20.71
2023-05-04T12:12:36.531Z,20.81
2023-05-04T12:16:57.997Z,21.14
2023-05-04T12:21:19.934Z,21.28
2023-05-04T12:25:44.144Z,21.56
2023-05-04T12:30:08.311Z,21.36
2023-05-04T12:34:24.559Z,21.61
2023-05-04T12:38:40.842Z,21.42
2023-05-04T12:42:57.029Z,21.71
2023-05-04T12:47:14.375Z,21.80
2023-05-04T12:51:30.703Z,21.90
2023-05-04T12:55:46.941Z,22.34
2023-05-04T13:00:03.912Z,21.99
2023-05-04T13:04:20.321Z,22.27
2023-05-04T13:08:36.605Z,22.86
2023-05-04T13:12:52.968Z,23.47
2023-05-04T13:17:09.321Z,23.59
2023-05-04T13:21:25.661Z,24.54
2023-05-04T13:25:42.291Z,24.63
2023-05-04T13:30:01.262Z,24.45
2023-05-04T13:34:17.601Z,24.96
2023-05-04T13:38:33.829Z,24.00
2023-05-04T13:42:50.050Z,22.98
2023-05-04T13:47:06.360Z,22.95
2023-05-04T13:51:22.615Z,23.89
2023-05-04T13:55:38.842Z,24.34
2023-05-04T14:00:07.206Z,24.63
2023-05-04T14:04:24.547Z,24.92
2023-05-04T14:08:40.783Z,24.35
2023-05-04T14:12:57.154Z,24.08
2023-05-04T14:17:13.622Z,23.97
2023-05-04T14:21:29.893Z,23.95
2023-05-04T14:25:53.702Z,23.37
2023-05-04T14:30:10.653Z,23.41
2023-05-04T14:34:29.553Z,23.59
2023-05-04T14:38:46.023Z,23.20
2023-05-04T14:43:02.504Z,23.14
2023-05-04T14:47:19.750Z,23.44
2023-05-04T14:51:37.027Z,23.00
2023-05-04T14:55:53.334Z,23.73
2023-05-04T15:00:11.638Z,23.38
2023-05-04T15:04:28.043Z,23.96
2023-05-04T15:08:44.326Z,24.15
2023-05-04T15:13:01.890Z,23.67
2023-05-04T15:17:20.100Z,23.66
2023-05-04T15:21:36.658Z,23.22
2023-05-04T15:25:53.015Z,23.11
2023-05-04T15:30:10.246Z,23.24
2023-05-04T15:34:26.637Z,22.78
2023-05-04T15:38:43.787Z,23.30
2023-05-04T15:43:00.147Z,22.78
2023-05-04T15:47:16.359Z,22.83
2023-05-04T15:51:32.728Z,22.87
2023-05-04T15:55:50.876Z,22.36
2023-05-04T16:00:09.159Z,22.45
2023-05-04T16:04:25.398Z,22.28
2023-05-04T16:08:41.723Z,22.46
2023-05-04T16:13:04.251Z,22.15
2023-05-04T16:17:21.021Z,22.11
2023-05-04T16:21:37.259Z,22.21
2023-05-04T16:25:53.471Z,21.72
2023-05-04T16:30:10.218Z,21.30
2023-05-04T16:34:26.755Z,21.25
2023-05-04T16:38:43.190Z,20.95
2023-05-04T16:42:59.732Z,21.21
2023-05-04T16:47:16.431Z,20.99
2023-05-04T16:51:32.609Z,20.90
2023-05-04T16:55:51.110Z,20.71
2023-05-04T17:00:08.188Z,20.72
2023-05-04T17:04:25.480Z,20.79
2023-05-04T17:08:41.741Z,20.73
2023-05-04T17:12:59.220Z,20.78
2023-05-04T17:17:16.608Z,20.54
2023-05-04T17:21:33.161Z,20.57
2023-05-04T17:25:50.396Z,20.53
2023-05-04T17:30:07.564Z,20.57
2023-05-04T17:34:23.925Z,20.48
2023-05-04T17:38:41.500Z,20.22
2023-05-04T17:42:57.885Z,20.27
2023-05-04T17:47:14.162Z,20.33
2023-05-04T17:51:31.048Z,20.13
2023-05-04T17:55:47.255Z,20.52
2023-05-04T18:00:05.406Z,20.15
2023-05-04T18:04:21.829Z,20.09
2023-05-04T18:08:37.988Z,20.07
2023-05-04T18:12:56.472Z,19.81
2023-05-04T18:17:12.851Z,19.64
2023-05-04T18:21:29.097Z,19.39
2023-05-04T18:25:45.360Z,19.37
2023-05-04T18:30:02.452Z,19.37
2023-05-04T18:34:18.804Z,19.40
2023-05-04T18:38:36.378Z,19.34
2023-05-04T18:42:52.543Z,19.12
2023-05-04T18:47:09.234Z,19.16
2023-05-04T18:51:28.044Z,18.94
2023-05-04T18:55:44.305Z,18.89
2023-05-04T19:00:00.669Z,18.72
2023-05-04T19:04:16.877Z,18.68
2023-05-04T19:08:33.409Z,18.69
2023-05-04T19:12:50.692Z,18.43
2023-05-04T19:17:07.052Z,18.25
2023-05-04T19:21:23.332Z,18.18
2023-05-04T19:25:39.588Z,18.01
2023-05-04T19:29:56.292Z,17.90
2023-05-04T19:34:12.655Z,17.78
2023-05-04T19:38:28.954Z,17.35
2023-05-04T19:42:46.327Z,17.52
2023-05-04T19:47:02.648Z,17.59
2023-05-04T19:51:18.898Z,17.42
2023-05-04T19:55:36.411Z,17.42
2023-05-04T19:59:52.667Z,17.19
2023-05-04T20:04:08.921Z,17.24
2023-05-04T20:08:25.160Z,17.31
2023-05-04T20:12:41.525Z,16.92
2023-05-04T20:16:58.253Z,16.77
2023-05-04T20:21:14.802Z,16.94
2023-05-04T20:25:31.231Z,16.97
2023-05-04T20:29:47.598Z,16.56
2023-05-04T20:34:03.799Z,16.48
2023-05-04T20:38:20.086Z,16.66
2023-05-04T20:42:36.421Z,16.69
2023-05-04T20:46:52.606Z,16.52
2023-05-04T20:51:14.788Z,16.59
2023-05-04T20:55:31.848Z,16.21
2023-05-04T20:59:48.072Z,15.75
2023-05-04T21:04:04.462Z,15.96
2023-05-04T21:08:20.728Z,15.98
2023-05-04T21:12:37.047Z,16.06
2023-05-04T21:16:53.315Z,15.84
2023-05-04T21:21:09.630Z,15.72
2023-05-04T21:25:26.377Z,15.58
2023-05-04T21:29:42.541Z,15.67
2023-05-04T21:33:58.849Z,15.72
2023-05-04T21:38:15.203Z,15.44
2023-05-04T21:42:31.496Z,15.32
2023-05-04T21:46:47.823Z,15.34
2023-05-04T21:51:04.062Z,15.50
2023-05-04T21:55:20.541Z,15.53
2023-05-04T21:59:36.910Z,15.36
2023-05-04T22:03:53.332Z,15.54
2023-05-04T22:08:09.490Z,15.55
2023-05-04T22:12:26.244Z,15.74
2023-05-04T22:16:42.576Z,15.82
2023-05-04T22:20:58.832Z,15.71
2023-05-04T22:25:15.166Z,15.64
2023-05-04T22:29:34.062Z,15.50
2023-05-04T22:33:50.308Z,15.38
2023-05-04T22:38:07.004Z,15.69
2023-05-04T22:42:23.380Z,15.50
2023-05-04T22:46:39.877Z,15.14
2023-05-04T22:50:56.468Z,15.31
2023-05-04T22:55:12.684Z,15.50
2023-05-04T22:59:28.913Z,15.51
2023-05-04T23:03:45.557Z,15.30
2023-05-04T23:08:01.845Z,15.24
2023-05-04T23:12:18.255Z,15.45
2023-05-04T23:16:34.551Z,15.10
2023-05-04T23:20:51.020Z,15.03
2023-05-04T23:25:08.422Z,15.29
2023-05-04T23:29:24.764Z,15.20
2023-05-04T23:33:41.872Z,15.38
2023-05-04T23:37:58.374Z,15.44
2023-05-04T23:42:14.958Z,15.14
2023-05-04T23:46:31.346Z,14.96
2023-05-04T23:50:54.949Z,15.16
2023-05-04T23:55:11.323Z,15.14
2023-05-04T23:59:27.809Z,15.02
